createdAt,value
2022-10-27T00:01:08.307Z,12.58
2022-10-27T00:03:37.701Z,12.58
2022-10-27T00:06:10.008Z,12.63
2022-10-27T00:08:38.393Z,12.56
2022-10-27T00:11:07.987Z,12.54
2022-10-27T00:13:36.687Z,12.64
2022-10-27T00:16:07.033Z,12.65
2022-10-27T00:18:35.509Z,12.77
2022-10-27T00:21:07.699Z,12.78
2022-10-27T00:23:36.414Z,12.75
2022-10-27T00:26:05.506Z,12.63
2022-10-27T00:28:34.018Z,12.65
2022-10-27T00:31:03.404Z,12.63
2022-10-27T00:33:31.660Z,12.57
2022-10-27T00:36:06.384Z,12.56
2022-10-27T00:38:35.018Z,12.57
2022-10-27T00:41:05.561Z,12.56
2022-10-27T00:43:35.220Z,12.58
2022-10-27T00:46:08.758Z,12.57
2022-10-27T00:48:36.842Z,12.67
2022-10-27T00:51:07.249Z,12.63
2022-10-27T00:53:35.617Z,12.67
2022-10-27T00:56:04.469Z,12.64
2022-10-27T00:58:37.066Z,12.57
2022-10-27T01:01:14.977Z,12.57
2022-10-27T01:03:43.690Z,12.58
2022-10-27T01:06:14.709Z,12.58
2022-10-27T01:08:43.496Z,12.60
2022-10-27T01:11:11.653Z,12.60
2022-10-27T01:13:40.330Z,12.61
2022-10-27T01:16:24.290Z,12.61
2022-10-27T01:19:02.615Z,12.60
2022-10-27T01:21:58.213Z,12.61
2022-10-27T01:25:04.713Z,12.60
2022-10-27T01:27:53.443Z,12.63
2022-10-27T01:30:22.403Z,12.63
2022-10-27T01:32:59.757Z,12.71
2022-10-27T01:35:35.225Z,12.69
2022-10-27T01:38:11.943Z,12.67
2022-10-27T01:40:47.768Z,12.69
2022-10-27T01:43:17.119Z,12.61
2022-10-27T01:45:46.022Z,12.60
2022-10-27T01:48:16.706Z,12.60
2022-10-27T01:51:00.782Z,12.61
2022-10-27T01:53:32.055Z,12.57
2022-10-27T01:56:26.786Z,12.54
2022-10-27T01:59:24.548Z,12.57
2022-10-27T02:02:03.370Z,12.65
2022-10-27T02:04:40.886Z,12.61
2022-10-27T02:07:14.011Z,12.53
2022-10-27T02:09:46.182Z,12.48
2022-10-27T02:12:20.597Z,12.50
2022-10-27T02:14:52.082Z,12.58
2022-10-27T02:17:22.316Z,12.53
2022-10-27T02:19:55.369Z,12.50
2022-10-27T02:22:26.862Z,12.53
2022-10-27T02:24:55.419Z,12.53
2022-10-27T02:27:33.460Z,12.47
2022-10-27T02:30:03.328Z,12.51
2022-10-27T02:32:32.821Z,12.50
2022-10-27T02:35:05.174Z,12.53
2022-10-27T02:37:36.281Z,12.48
2022-10-27T02:40:05.362Z,12.57
2022-10-27T02:42:33.441Z,12.44
2022-10-27T02:45:01.554Z,12.36
2022-10-27T02:47:29.518Z,12.39
2022-10-27T02:49:57.503Z,12.44
2022-10-27T02:52:26.881Z,12.46
2022-10-27T02:54:54.979Z,12.44
2022-10-27T02:57:23.096Z,12.41
2022-10-27T02:59:53.754Z,12.39
2022-10-27T03:02:23.425Z,12.44
2022-10-27T03:04:51.956Z,12.37
2022-10-27T03:07:20.613Z,12.39
2022-10-27T03:09:50.103Z,12.43
2022-10-27T03:12:18.207Z,12.47
2022-10-27T03:14:46.319Z,12.39
2022-10-27T03:17:14.335Z,12.46
2022-10-27T03:19:42.440Z,12.44
2022-10-27T03:22:10.401Z,12.46
2022-10-27T03:24:38.485Z,12.36
2022-10-27T03:27:07.963Z,12.37
2022-10-27T03:29:36.035Z,12.37
2022-10-27T03:32:04.135Z,12.37
2022-10-27T03:34:32.292Z,12.46
2022-10-27T03:37:00.333Z,12.40
2022-10-27T03:39:28.385Z,12.48
2022-10-27T03:41:56.427Z,12.48
2022-10-27T03:44:25.883Z,12.46
2022-10-27T03:46:53.943Z,12.39
2022-10-27T03:49:22.071Z,12.34
2022-10-27T03:51:50.221Z,12.44
2022-10-27T03:54:18.304Z,12.41
2022-10-27T03:56:46.271Z,12.34
2022-10-27T03:59:14.850Z,12.39
2022-10-27T04:01:44.461Z,12.33
2022-10-27T04:04:13.170Z,12.41
2022-10-27T04:06:41.222Z,12.44
2022-10-27T04:09:09.236Z,12.34
2022-10-27T04:11:37.336Z,12.40
2022-10-27T04:14:07.338Z,12.36
2022-10-27T04:16:35.654Z,12.36
2022-10-27T04:19:05.188Z,12.32
2022-10-27T04:21:33.140Z,12.40
2022-10-27T04:24:01.117Z,12.36
2022-10-27T04:26:29.069Z,12.39
2022-10-27T04:28:57.058Z,12.37
2022-10-27T04:31:25.421Z,12.34
2022-10-27T04:33:53.342Z,12.34
2022-10-27T04:36:22.943Z,12.36
2022-10-27T04:38:51.520Z,12.37
2022-10-27T04:41:19.871Z,12.29
2022-10-27T04:46:23.506Z,12.30
2022-10-27T04:48:51.499Z,12.29
2022-10-27T04:51:22.231Z,12.25
2022-10-27T04:53:52.632Z,12.23
2022-10-27T04:56:20.649Z,12.23
2022-10-27T04:58:48.647Z,12.20
2022-10-27T05:01:16.933Z,12.26
2022-10-27T05:03:45.099Z,12.20
2022-10-27T05:06:13.270Z,12.19
2022-10-27T05:08:41.494Z,12.12
2022-10-27T05:11:16.271Z,12.19
2022-10-27T05:13:44.931Z,12.16
2022-10-27T05:16:13.060Z,12.09
2022-10-27T05:18:41.094Z,12.10
2022-10-27T05:21:09.093Z,12.06
2022-10-27T05:23:37.477Z,12.12
2022-10-27T05:26:05.626Z,12.16
2022-10-27T05:28:35.343Z,12.20
2022-10-27T05:31:03.792Z,12.22
2022-10-27T05:33:32.105Z,12.29
2022-10-27T05:36:00.435Z,12.28
2022-10-27T05:38:28.776Z,12.28
2022-10-27T05:40:57.646Z,12.28
2022-10-27T05:43:25.945Z,12.25
2022-10-27T05:45:55.523Z,12.18
2022-10-27T05:48:23.621Z,12.13
2022-10-27T05:50:54.972Z,12.08
2022-10-27T05:53:23.970Z,12.09
2022-10-27T05:55:53.940Z,12.10
2022-10-27T05:58:22.602Z,12.05
2022-10-27T06:00:50.714Z,12.02
2022-10-27T06:03:22.773Z,11.98
2022-10-27T06:05:51.287Z,11.99
2022-10-27T06:08:20.149Z,12.09
2022-10-27T06:10:48.505Z,12.18
2022-10-27T06:13:19.033Z,12.20
2022-10-27T06:15:47.286Z,12.18
2022-10-27T06:18:15.909Z,12.20
2022-10-27T06:20:46.016Z,12.22
2022-10-27T06:23:14.172Z,12.25
2022-10-27T06:25:42.486Z,12.28
2022-10-27T06:28:12.462Z,12.28
2022-10-27T06:30:40.509Z,12.22
2022-10-27T06:33:08.471Z,12.20
2022-10-27T06:35:36.894Z,12.22
2022-10-27T06:38:06.754Z,12.28
2022-10-27T06:40:36.999Z,12.28
2022-10-27T06:43:08.654Z,12.28
2022-10-27T06:45:37.388Z,12.36
2022-10-27T06:48:07.368Z,12.32
2022-10-27T06:50:36.029Z,12.26
2022-10-27T06:53:04.329Z,12.28
2022-10-27T06:55:33.847Z,12.29
2022-10-27T06:58:02.076Z,12.20
2022-10-27T07:00:30.484Z,12.15
2022-10-27T07:03:01.633Z,12.26
2022-10-27T07:05:31.897Z,12.25
2022-10-27T07:07:59.781Z,12.26
2022-10-27T07:10:27.799Z,12.32
2022-10-27T07:12:59.336Z,12.40
2022-10-27T07:15:29.210Z,12.36
2022-10-27T07:17:59.084Z,12.32
2022-10-27T07:20:29.187Z,12.44
2022-10-27T07:22:57.629Z,12.46
2022-10-27T07:25:26.082Z,12.51
2022-10-27T07:27:55.295Z,12.53
2022-10-27T07:30:27.873Z,12.54
2022-10-27T07:32:56.201Z,12.63
2022-10-27T07:35:24.925Z,12.68
2022-10-27T07:37:53.803Z,12.73
2022-10-27T07:40:27.529Z,12.78
2022-10-27T07:43:05.402Z,12.78
2022-10-27T07:45:37.954Z,12.81
2022-10-27T07:48:07.547Z,12.78
2022-10-27T07:50:35.608Z,12.83
2022-10-27T07:53:05.883Z,12.80
2022-10-27T07:55:36.706Z,12.75
2022-10-27T07:58:07.837Z,12.80
2022-10-27T08:00:41.306Z,12.91
2022-10-27T08:03:13.293Z,12.94
2022-10-27T08:05:41.431Z,12.95
2022-10-27T08:08:09.577Z,12.99
2022-10-27T08:10:40.379Z,13.05
2022-10-27T08:13:09.320Z,13.13
2022-10-27T08:15:40.431Z,13.20
2022-10-27T08:18:09.604Z,13.26
2022-10-27T08:20:40.364Z,13.23
2022-10-27T08:23:11.505Z,13.30
2022-10-27T08:25:39.680Z,13.25
2022-10-27T08:28:07.945Z,13.25
2022-10-27T08:30:40.328Z,13.33
2022-10-27T08:33:14.116Z,13.29
2022-10-27T08:35:42.569Z,13.32
2022-10-27T08:38:14.994Z,13.23
2022-10-27T08:43:42.446Z,13.36
2022-10-27T08:46:17.643Z,13.26
2022-10-27T08:48:48.026Z,13.22
2022-10-27T08:51:18.629Z,13.33
2022-10-27T08:53:50.893Z,13.29
2022-10-27T08:56:19.082Z,13.39
2022-10-27T08:58:49.127Z,13.33
2022-10-27T09:01:31.385Z,13.40
2022-10-27T09:04:14.634Z,13.49
2022-10-27T09:06:57.490Z,13.56
2022-10-27T09:09:31.759Z,13.57
2022-10-27T09:12:10.749Z,13.59
2022-10-27T09:15:12.064Z,13.50
2022-10-27T09:17:44.113Z,13.57
2022-10-27T09:20:20.826Z,13.59
2022-10-27T09:22:52.938Z,13.77
2022-10-27T09:25:22.748Z,13.81
2022-10-27T09:27:54.404Z,13.84
2022-10-27T09:30:22.752Z,13.81
2022-10-27T09:32:53.968Z,13.75
2022-10-27T09:35:26.527Z,13.87
2022-10-27T09:37:56.593Z,13.84
2022-10-27T09:40:26.118Z,13.90
2022-10-27T09:42:56.915Z,13.87
2022-10-27T09:45:27.883Z,13.92
2022-10-27T09:47:58.390Z,14.00
2022-10-27T09:50:36.731Z,13.98
2022-10-27T09:53:05.871Z,14.02
2022-10-27T09:55:50.618Z,13.97
2022-10-27T09:58:19.204Z,14.02
2022-10-27T10:00:56.560Z,14.04
2022-10-27T10:03:24.868Z,14.09
2022-10-27T10:06:02.877Z,14.14
2022-10-27T10:08:33.980Z,14.18
2022-10-27T10:11:04.210Z,14.17
2022-10-27T10:13:33.011Z,14.18
2022-10-27T10:16:11.274Z,14.18
2022-10-27T10:18:41.325Z,14.25
2022-10-27T10:21:12.565Z,14.28
2022-10-27T10:23:51.808Z,14.33
2022-10-27T10:26:21.920Z,14.30
2022-10-27T10:28:53.315Z,14.29
2022-10-27T10:31:26.080Z,14.30
2022-10-27T10:33:55.703Z,14.39
2022-10-27T10:36:30.224Z,14.39
2022-10-27T10:39:00.357Z,14.37
2022-10-27T10:41:29.282Z,14.55
2022-10-27T10:44:13.718Z,14.53
2022-10-27T10:46:50.429Z,14.63
2022-10-27T10:49:22.673Z,14.64
2022-10-27T10:51:58.563Z,14.57
2022-10-27T10:54:30.197Z,14.67
2022-10-27T10:59:31.698Z,14.60
2022-10-27T11:02:06.231Z,14.55
2022-10-27T11:04:44.474Z,14.76
2022-10-27T11:07:21.792Z,14.79
2022-10-27T11:09:58.492Z,14.81
2022-10-27T11:12:31.942Z,14.79
2022-10-27T11:15:03.043Z,14.87
2022-10-27T11:17:35.485Z,14.90
2022-10-27T11:20:06.497Z,15.01
2022-10-27T11:22:37.610Z,15.02
2022-10-27T11:25:08.552Z,15.24
2022-10-27T11:27:48.337Z,15.25
2022-10-27T11:30:23.316Z,15.48
2022-10-27T11:32:59.355Z,15.49
2022-10-27T11:35:35.014Z,15.66
2022-10-27T11:38:06.845Z,15.86
2022-10-27T11:40:44.607Z,15.90
2022-10-27T11:43:20.026Z,15.94
2022-10-27T11:45:54.655Z,15.85
2022-10-27T11:48:26.407Z,15.85
2022-10-27T11:50:57.423Z,15.94
2022-10-27T11:53:27.201Z,15.94
2022-10-27T11:56:22.879Z,16.14
2022-10-27T11:59:01.893Z,16.31
2022-10-27T12:01:44.089Z,16.40
2022-10-27T12:04:25.731Z,16.44
2022-10-27T12:07:05.531Z,16.52
2022-10-27T12:09:46.555Z,16.87
2022-10-27T12:12:19.550Z,17.04
2022-10-27T12:14:54.843Z,17.00
2022-10-27T12:17:30.115Z,17.14
2022-10-27T12:20:00.871Z,16.96
2022-10-27T12:22:35.742Z,16.97
2022-10-27T12:25:11.456Z,16.90
2022-10-27T12:27:40.906Z,17.03
2022-10-27T12:30:13.812Z,17.13
2022-10-27T12:32:46.155Z,17.13
2022-10-27T12:35:20.068Z,17.20
2022-10-27T12:37:54.567Z,17.31
2022-10-27T12:40:30.342Z,17.47
2022-10-27T12:43:02.392Z,17.58
2022-10-27T12:45:47.658Z,17.71
2022-10-27T12:48:28.245Z,17.61
2022-10-27T12:51:06.085Z,17.49
2022-10-27T12:53:43.436Z,17.61
2022-10-27T12:56:29.307Z,17.66
2022-10-27T12:59:06.226Z,17.66
2022-10-27T13:01:43.035Z,17.95
2022-10-27T13:04:35.754Z,18.00
2022-10-27T13:07:37.769Z,18.12
2022-10-27T13:10:26.180Z,18.03
2022-10-27T13:13:24.229Z,18.24
2022-10-27T13:16:01.299Z,18.07
2022-10-27T13:18:41.962Z,18.03
2022-10-27T13:21:19.265Z,17.87
2022-10-27T13:23:58.778Z,17.87
2022-10-27T13:26:38.117Z,17.76
2022-10-27T13:29:26.908Z,17.87
2022-10-27T13:32:26.899Z,18.07
2022-10-27T13:35:42.713Z,18.02
2022-10-27T13:38:25.450Z,17.58
2022-10-27T13:40:57.914Z,17.48
2022-10-27T13:43:59.173Z,17.48
2022-10-27T13:47:04.328Z,17.38
2022-10-27T13:50:03.448Z,17.28
2022-10-27T13:52:32.709Z,17.27
2022-10-27T13:55:42.854Z,17.16
2022-10-27T13:58:28.471Z,17.07
2022-10-27T14:01:27.408Z,17.06
2022-10-27T14:04:20.238Z,17.03
2022-10-27T14:06:52.240Z,17.00
2022-10-27T14:09:35.288Z,16.96
2022-10-27T14:12:15.634Z,16.90
2022-10-27T14:14:43.969Z,16.84
2022-10-27T14:17:17.792Z,16.66
2022-10-27T14:19:58.721Z,16.44
2022-10-27T14:22:34.235Z,16.45
2022-10-27T14:25:11.897Z,16.59
2022-10-27T14:27:40.258Z,16.31
2022-10-27T14:30:15.306Z,16.15
2022-10-27T14:32:43.779Z,15.96
2022-10-27T14:35:22.906Z,15.71
2022-10-27T14:37:57.280Z,15.62
2022-10-27T14:40:35.026Z,15.49
2022-10-27T14:43:03.249Z,15.48
2022-10-27T14:45:32.382Z,15.60
2022-10-27T14:48:03.299Z,15.60
2022-10-27T14:50:42.214Z,15.65
2022-10-27T14:53:27.242Z,15.63
2022-10-27T14:56:09.306Z,15.62
2022-10-27T14:58:37.539Z,15.55
2022-10-27T15:01:05.737Z,15.49
2022-10-27T15:03:35.175Z,15.55
2022-10-27T15:06:03.723Z,15.46
2022-10-27T15:08:39.303Z,15.20
2022-10-27T15:11:08.749Z,15.24
2022-10-27T15:13:43.878Z,15.04
2022-10-27T15:16:12.380Z,15.07
2022-10-27T15:18:43.263Z,14.93
2022-10-27T15:21:13.840Z,14.80
2022-10-27T15:23:44.357Z,14.72
2022-10-27T15:26:15.777Z,14.56
2022-10-27T15:28:45.060Z,14.36
2022-10-27T15:31:13.748Z,14.37
2022-10-27T15:33:43.789Z,14.26
2022-10-27T15:36:21.629Z,14.19
2022-10-27T15:38:51.348Z,14.05
2022-10-27T15:41:22.245Z,13.97
2022-10-27T15:43:51.874Z,13.91
2022-10-27T15:46:33.194Z,13.85
2022-10-27T15:49:17.345Z,13.90
2022-10-27T15:51:48.901Z,13.92
2022-10-27T15:54:27.433Z,13.80
2022-10-27T15:57:02.419Z,13.60
2022-10-27T15:59:31.945Z,13.60
2022-10-27T16:02:03.941Z,13.49
2022-10-27T16:04:34.758Z,13.40
2022-10-27T16:07:30.614Z,13.32
2022-10-27T16:10:02.027Z,13.33
2022-10-27T16:12:41.449Z,13.20
2022-10-27T16:15:20.738Z,13.06
2022-10-27T16:17:54.671Z,12.95
2022-10-27T16:20:26.018Z,12.91
2022-10-27T16:22:55.762Z,12.99
2022-10-27T16:25:29.673Z,12.91
2022-10-27T16:28:00.157Z,12.89
2022-10-27T16:30:30.645Z,12.98
2022-10-27T16:33:03.209Z,13.01
2022-10-27T16:35:31.856Z,13.11
2022-10-27T16:38:01.338Z,13.05
2022-10-27T16:40:38.131Z,12.89
2022-10-27T16:43:22.675Z,12.84
2022-10-27T16:45:52.280Z,12.83
2022-10-27T16:48:26.135Z,12.80
2022-10-27T16:50:55.343Z,12.83
2022-10-27T16:53:31.591Z,12.80
2022-10-27T16:56:07.405Z,12.81
2022-10-27T16:58:36.811Z,12.78
2022-10-27T17:01:11.046Z,12.77
2022-10-27T17:03:39.499Z,12.73
2022-10-27T17:06:09.553Z,12.57
2022-10-27T17:08:40.748Z,12.50
2022-10-27T17:11:13.727Z,12.19
2022-10-27T17:13:43.665Z,11.98
2022-10-27T17:16:14.852Z,11.92
2022-10-27T17:18:44.215Z,11.78
2022-10-27T17:21:14.741Z,11.74
2022-10-27T17:23:44.604Z,11.75
2022-10-27T17:26:15.358Z,11.74
2022-10-27T17:28:46.415Z,11.63
2022-10-27T17:31:19.468Z,11.61
2022-10-27T17:33:53.248Z,11.51
2022-10-27T17:36:21.415Z,11.31
2022-10-27T17:38:49.654Z,11.26
2022-10-27T17:41:19.467Z,11.27
2022-10-27T17:43:47.874Z,11.17
2022-10-27T17:46:18.148Z,11.16
2022-10-27T17:48:48.153Z,11.13
2022-10-27T17:51:18.277Z,11.05
2022-10-27T17:53:47.394Z,10.98
2022-10-27T17:56:19.709Z,11.02
2022-10-27T17:58:48.574Z,11.03
2022-10-27T18:01:19.079Z,10.93
2022-10-27T18:03:48.875Z,10.98
2022-10-27T18:06:21.435Z,11.00
2022-10-27T18:08:52.992Z,11.02
2022-10-27T18:11:25.392Z,11.06
2022-10-27T18:13:55.860Z,11.12
2022-10-27T18:16:28.317Z,11.19
2022-10-27T18:18:59.675Z,11.26
2022-10-27T18:21:28.173Z,11.30
2022-10-27T18:23:59.056Z,11.33
2022-10-27T18:26:30.612Z,11.41
2022-10-27T18:28:58.735Z,11.53
2022-10-27T18:31:30.075Z,11.58
2022-10-27T18:33:58.328Z,11.57
2022-10-27T18:36:27.556Z,11.67
2022-10-27T18:38:56.591Z,11.74
2022-10-27T18:41:26.077Z,11.75
2022-10-27T18:43:56.066Z,11.70
2022-10-27T18:46:25.700Z,11.71
2022-10-27T18:48:55.679Z,11.72
2022-10-27T18:51:23.812Z,11.68
2022-10-27T18:53:58.731Z,11.70
2022-10-27T18:56:27.665Z,11.65
2022-10-27T18:58:58.870Z,11.70
2022-10-27T19:01:27.925Z,11.55
2022-10-27T19:03:58.005Z,11.47
2022-10-27T19:06:27.809Z,11.37
2022-10-27T19:08:56.192Z,11.37
2022-10-27T19:11:25.716Z,11.33
2022-10-27T19:13:53.974Z,11.41
2022-10-27T19:16:25.675Z,11.37
2022-10-27T19:18:56.522Z,11.53
2022-10-27T19:21:24.675Z,11.50
2022-10-27T19:23:56.258Z,11.55
2022-10-27T19:26:26.747Z,11.61
2022-10-27T19:28:56.785Z,11.72
2022-10-27T19:31:31.075Z,11.65
2022-10-27T19:33:59.725Z,11.78
2022-10-27T19:36:29.931Z,11.81
2022-10-27T19:38:59.609Z,11.88
2022-10-27T19:41:30.072Z,11.89
2022-10-27T19:43:58.884Z,11.91
2022-10-27T19:46:30.391Z,11.91
2022-10-27T19:49:00.429Z,11.88
2022-10-27T19:51:30.433Z,11.89
2022-10-27T19:53:59.434Z,11.88
2022-10-27T19:56:31.727Z,11.98
2022-10-27T19:59:03.244Z,11.93
2022-10-27T20:01:36.240Z,11.93
2022-10-27T20:04:07.517Z,11.92
2022-10-27T20:06:36.486Z,11.93
2022-10-27T20:09:05.367Z,12.08
2022-10-27T20:11:35.312Z,12.16
2022-10-27T20:14:03.589Z,12.20
2022-10-27T20:16:35.087Z,12.13
2022-10-27T20:19:04.400Z,12.15
2022-10-27T20:21:32.440Z,12.22
2022-10-27T20:24:01.196Z,12.22
2022-10-27T20:26:30.164Z,12.16
2022-10-27T20:28:59.208Z,12.29
2022-10-27T20:31:27.720Z,12.32
2022-10-27T20:33:57.979Z,12.33
2022-10-27T20:36:26.659Z,12.32
2022-10-27T20:38:56.542Z,12.32
2022-10-27T20:41:27.590Z,12.34
2022-10-27T20:43:56.323Z,12.39
2022-10-27T20:46:25.313Z,12.34
2022-10-27T20:48:56.315Z,12.36
2022-10-27T20:51:27.786Z,12.41
2022-10-27T20:53:56.184Z,12.44
2022-10-27T20:56:27.976Z,12.46
2022-10-27T20:58:58.345Z,12.47
2022-10-27T21:01:30.184Z,12.43
2022-10-27T21:04:00.135Z,12.43
2022-10-27T21:06:31.391Z,12.47
2022-10-27T21:09:00.962Z,12.50
2022-10-27T21:11:29.613Z,12.57
2022-10-27T21:14:00.380Z,12.53
2022-10-27T21:16:29.567Z,12.56
2022-10-27T21:18:59.908Z,12.53
2022-10-27T21:21:30.923Z,12.54
2022-10-27T21:24:00.005Z,12.50
2022-10-27T21:26:28.878Z,12.51
2022-10-27T21:28:58.622Z,12.56
2022-10-27T21:31:29.328Z,12.56
2022-10-27T21:33:58.200Z,12.53
2022-10-27T21:36:26.422Z,12.47
2022-10-27T21:38:56.528Z,12.44
2022-10-27T21:41:25.592Z,12.39
2022-10-27T21:43:55.773Z,12.34
2022-10-27T21:46:26.491Z,12.40
2022-10-27T21:48:55.861Z,12.40
2022-10-27T21:51:24.784Z,12.39
2022-10-27T21:54:00.732Z,12.48
2022-10-27T21:56:31.340Z,12.46
2022-10-27T21:59:00.023Z,12.50
2022-10-27T22:01:30.077Z,12.48
2022-10-27T22:03:58.727Z,12.47
2022-10-27T22:06:29.482Z,12.46
2022-10-27T22:08:59.838Z,12.43
2022-10-27T22:11:30.345Z,12.44
2022-10-27T22:13:58.913Z,12.44
2022-10-27T22:16:29.093Z,12.40
2022-10-27T22:18:58.864Z,12.43
2022-10-27T22:21:28.415Z,12.40
2022-10-27T22:23:58.541Z,12.41
2022-10-27T22:26:27.655Z,12.41
2022-10-27T22:28:56.469Z,12.39
2022-10-27T22:31:27.825Z,12.48
2022-10-27T22:33:56.278Z,12.51
2022-10-27T22:36:25.956Z,12.53
2022-10-27T22:39:00.350Z,12.50
2022-10-27T22:41:29.201Z,12.47
2022-10-27T22:43:57.926Z,12.47
2022-10-27T22:46:28.662Z,12.53
2022-10-27T22:48:57.253Z,12.47
2022-10-27T22:51:27.122Z,12.46
2022-10-27T22:53:56.955Z,12.53
2022-10-27T22:56:28.130Z,12.50
2022-10-27T22:58:58.677Z,12.51
2022-10-27T23:01:28.301Z,12.54
2022-10-27T23:03:57.867Z,12.56
2022-10-27T23:06:27.354Z,12.56
2022-10-27T23:08:57.603Z,12.57
2022-10-27T23:11:30.929Z,12.53
2022-10-27T23:13:59.122Z,12.51
2022-10-27T23:16:29.062Z,12.51
2022-10-27T23:18:58.210Z,12.54
2022-10-27T23:21:27.187Z,12.61
2022-10-27T23:23:57.131Z,12.61
2022-10-27T23:26:28.931Z,12.61
2022-10-27T23:28:58.547Z,12.65
2022-10-27T23:31:28.056Z,12.65
2022-10-27T23:33:57.840Z,12.63
2022-10-27T23:36:27.270Z,12.58
2022-10-27T23:38:55.462Z,12.56
2022-10-27T23:41:24.005Z,12.54
2022-10-27T23:43:55.228Z,12.47
2022-10-27T23:46:24.352Z,12.47
2022-10-27T23:48:53.064Z,12.48
2022-10-27T23:51:21.884Z,12.60
2022-10-27T23:53:50.483Z,12.56
2022-10-27T23:56:18.734Z,12.63
2022-10-27T23:58:47.104Z,12.53
